createdAt,value
2023-01-06T00:01:41.643Z,96268.00
2023-01-06T00:05:44.652Z,96255.00
2023-01-06T00:09:48.794Z,96251.00
2023-01-06T00:13:51.716Z,96252.00
2023-01-06T00:17:54.501Z,96247.00
2023-01-06T00:21:57.293Z,96244.00
2023-01-06T00:26:01.699Z,96231.00
2023-01-06T00:30:05.513Z,96229.00
2023-01-06T00:34:08.390Z,96227.00
2023-01-06T00:38:11.616Z,96219.00
2023-01-06T00:42:15.770Z,96221.00
2023-01-06T00:46:19.527Z,96219.00
2023-01-06T00:50:22.671Z,96222.00
2023-01-06T00:54:25.694Z,96227.00
2023-01-06T00:58:32.383Z,96212.00
2023-01-06T01:02:35.495Z,96210.00
2023-01-06T01:06:39.218Z,96212.00
2023-01-06T01:10:42.047Z,96212.00
2023-01-06T01:14:48.356Z,96205.00
2023-01-06T01:18:50.974Z,96193.00
2023-01-06T01:22:53.767Z,96189.00
2023-01-06T01:26:56.799Z,96191.00
2023-01-06T01:31:03.355Z,96185.00
2023-01-06T01:35:07.097Z,96181.00
2023-01-06T01:39:10.540Z,96182.00
2023-01-06T01:43:13.696Z,96180.00
2023-01-06T01:47:20.992Z,96175.00
2023-01-06T01:51:29.706Z,96178.00
2023-01-06T01:55:33.474Z,96167.00
2023-01-06T01:59:38.416Z,96172.00
2023-01-06T02:03:43.634Z,96174.00
2023-01-06T02:07:47.480Z,96168.00
2023-01-06T02:11:52.213Z,96166.00
2023-01-06T02:16:02.532Z,96175.00
2023-01-06T02:20:27.572Z,96158.00
2023-01-06T02:24:54.907Z,96142.00
2023-01-06T02:29:41.965Z,96151.00
2023-01-06T02:33:50.052Z,96143.00
2023-01-06T02:38:01.610Z,96136.00
2023-01-06T02:42:18.127Z,96133.00
2023-01-06T02:46:41.237Z,96136.00
2023-01-06T02:50:52.198Z,96132.00
2023-01-06T02:55:03.216Z,96132.00
2023-01-06T02:59:11.251Z,96130.00
2023-01-06T03:03:17.325Z,96116.00
2023-01-06T03:07:24.016Z,96107.00
2023-01-06T03:11:32.283Z,96112.00
2023-01-06T03:15:35.726Z,96106.00
2023-01-06T03:19:38.963Z,96108.00
2023-01-06T03:23:43.822Z,96100.00
2023-01-06T03:27:46.683Z,96103.00
2023-01-06T03:31:57.838Z,96107.00
2023-01-06T03:36:09.305Z,96107.00
2023-01-06T03:40:23.544Z,96097.00
2023-01-06T03:44:36.192Z,96109.00
2023-01-06T03:48:49.420Z,96112.00
2023-01-06T03:52:59.242Z,96118.00
2023-01-06T03:57:08.236Z,96119.00
2023-01-06T04:01:11.945Z,96113.00
2023-01-06T04:05:18.742Z,96116.00
2023-01-06T04:09:22.606Z,96110.00
2023-01-06T04:13:27.775Z,96097.00
2023-01-06T04:17:32.446Z,96103.00
2023-01-06T04:21:35.389Z,96106.00
2023-01-06T04:25:38.900Z,96107.00
2023-01-06T04:29:50.351Z,96118.00
2023-01-06T04:33:53.143Z,96119.00
2023-01-06T04:37:56.171Z,96114.00
2023-01-06T04:41:58.951Z,96113.00
2023-01-06T04:46:03.146Z,96104.00
2023-01-06T04:50:06.695Z,96109.00
2023-01-06T04:54:09.511Z,96103.00
2023-01-06T04:58:12.314Z,96107.00
2023-01-06T05:02:16.478Z,96097.00
2023-01-06T05:06:19.699Z,96100.00
2023-01-06T05:10:22.760Z,96101.00
2023-01-06T05:14:25.569Z,96112.00
2023-01-06T05:18:29.730Z,96105.00
2023-01-06T05:22:32.551Z,96112.00
2023-01-06T05:26:35.317Z,96109.00
2023-01-06T05:30:38.149Z,96108.00
2023-01-06T05:34:42.336Z,96104.00
2023-01-06T05:38:45.609Z,96106.00
2023-01-06T05:42:48.440Z,96107.00
2023-01-06T05:46:51.236Z,96099.00
2023-01-06T05:51:01.851Z,96096.00
2023-01-06T05:55:05.352Z,96093.00
2023-01-06T05:59:08.151Z,96087.00
2023-01-06T06:03:10.938Z,96087.00
2023-01-06T06:07:15.064Z,96085.00
2023-01-06T06:11:19.865Z,96095.00
2023-01-06T06:15:22.518Z,96106.00
2023-01-06T06:19:25.363Z,96103.00
2023-01-06T06:23:29.430Z,96100.00
2023-01-06T06:27:32.093Z,96106.00
2023-01-06T06:31:35.358Z,96100.00
2023-01-06T06:35:38.157Z,96103.00
2023-01-06T06:39:42.296Z,96098.00
2023-01-06T06:43:45.677Z,96085.00
2023-01-06T06:47:48.478Z,96094.00
2023-01-06T06:51:51.244Z,96090.00
2023-01-06T06:55:56.637Z,96078.00
2023-01-06T06:59:59.516Z,96078.00
2023-01-06T07:04:02.284Z,96078.00
2023-01-06T07:08:05.565Z,96086.00
2023-01-06T07:12:09.825Z,96074.00
2023-01-06T07:16:12.696Z,96078.00
2023-01-06T07:20:16.626Z,96089.00
2023-01-06T07:24:19.461Z,96091.00
2023-01-06T07:28:23.722Z,96081.00
2023-01-06T07:32:26.524Z,96089.00
2023-01-06T07:36:29.375Z,96079.00
2023-01-06T07:40:32.285Z,96078.00
2023-01-06T07:44:36.439Z,96066.00
2023-01-06T07:48:39.255Z,96070.00
2023-01-06T07:52:42.100Z,96061.00
2023-01-06T07:56:45.067Z,96065.00
2023-01-06T08:00:49.170Z,96071.00
2023-01-06T08:04:51.980Z,96066.00
2023-01-06T08:08:54.771Z,96072.00
2023-01-06T08:12:57.545Z,96083.00
2023-01-06T08:17:01.758Z,96081.00
2023-01-06T08:21:06.393Z,96082.00
2023-01-06T08:25:10.142Z,96085.00
2023-01-06T08:29:12.923Z,96078.00
2023-01-06T08:33:17.038Z,96069.00
2023-01-06T08:37:19.805Z,96066.00
2023-01-06T08:41:22.556Z,96047.00
2023-01-06T08:45:25.299Z,96063.00
2023-01-06T08:49:29.461Z,96073.00
2023-01-06T08:53:33.628Z,96081.00
2023-01-06T08:57:36.482Z,96080.00
2023-01-06T09:01:39.434Z,96089.00
2023-01-06T09:05:43.663Z,96088.00
2023-01-06T09:09:46.525Z,96090.00
2023-01-06T09:13:50.783Z,96087.00
2023-01-06T09:17:53.637Z,96096.00
2023-01-06T09:22:00.215Z,96111.00
2023-01-06T09:26:03.759Z,96114.00
2023-01-06T09:30:09.071Z,96117.00
2023-01-06T09:34:11.808Z,96134.00
2023-01-06T09:38:17.765Z,96142.00
2023-01-06T09:42:34.731Z,96139.00
2023-01-06T09:46:40.991Z,96141.00
2023-01-06T09:50:45.766Z,96149.00
2023-01-06T09:54:57.328Z,96160.00
2023-01-06T09:59:09.574Z,96158.00
2023-01-06T10:03:15.512Z,96172.00
2023-01-06T10:07:25.241Z,96176.00
2023-01-06T10:11:42.791Z,96177.00
2023-01-06T10:15:52.848Z,96178.00
2023-01-06T10:20:07.909Z,96169.00
2023-01-06T10:24:34.789Z,96159.00
2023-01-06T10:28:43.408Z,96165.00
2023-01-06T10:32:48.562Z,96166.00
2023-01-06T10:36:57.132Z,96166.00
2023-01-06T10:41:11.775Z,96172.00
2023-01-06T10:45:16.337Z,96162.00
2023-01-06T10:49:20.209Z,96174.00
2023-01-06T10:53:23.023Z,96158.00
2023-01-06T10:57:29.774Z,96172.00
2023-01-06T11:01:34.904Z,96167.00
2023-01-06T11:05:37.950Z,96174.00
2023-01-06T11:09:43.779Z,96187.00
2023-01-06T11:13:50.068Z,96181.00
2023-01-06T11:17:54.246Z,96189.00
2023-01-06T11:21:57.097Z,96186.00
2023-01-06T11:26:13.260Z,96180.00
2023-01-06T11:30:22.408Z,96181.00
2023-01-06T11:34:29.011Z,96182.00
2023-01-06T11:38:32.014Z,96182.00
2023-01-06T11:42:35.695Z,96175.00
2023-01-06T11:46:40.660Z,96161.00
2023-01-06T11:50:53.375Z,96165.00
2023-01-06T11:55:04.431Z,96153.00
2023-01-06T11:59:11.575Z,96160.00
2023-01-06T12:03:24.368Z,96150.00
2023-01-06T12:07:41.583Z,96148.00
2023-01-06T12:11:48.325Z,96143.00
2023-01-06T12:15:59.664Z,96127.00
2023-01-06T12:20:06.997Z,96134.00
2023-01-06T12:24:17.546Z,96140.00
2023-01-06T12:28:25.453Z,96149.00
2023-01-06T12:32:35.572Z,96142.00
2023-01-06T12:36:43.791Z,96139.00
2023-01-06T12:40:51.688Z,96131.00
2023-01-06T12:44:59.860Z,96139.00
2023-01-06T12:49:05.714Z,96149.00
2023-01-06T12:53:20.563Z,96141.00
2023-01-06T12:57:47.357Z,96141.00
2023-01-06T13:01:54.426Z,96144.00
2023-01-06T13:06:11.319Z,96153.00
2023-01-06T13:10:23.322Z,96162.00
2023-01-06T13:14:33.736Z,96154.00
2023-01-06T13:18:42.688Z,96151.00
2023-01-06T13:22:55.530Z,96140.00
2023-01-06T13:27:21.256Z,96144.00
2023-01-06T13:31:41.788Z,96152.00
2023-01-06T13:36:07.569Z,96138.00
2023-01-06T13:40:15.192Z,96131.00
2023-01-06T13:44:21.712Z,96145.00
2023-01-06T13:48:34.607Z,96148.00
2023-01-06T13:52:37.700Z,96149.00
2023-01-06T13:56:40.495Z,96150.00
2023-01-06T14:00:44.296Z,96158.00
2023-01-06T14:04:49.149Z,96150.00
2023-01-06T14:08:59.514Z,96149.00
2023-01-06T14:13:09.092Z,96150.00
2023-01-06T14:17:31.628Z,96161.00
2023-01-06T14:21:38.233Z,96152.00
2023-01-06T14:25:45.334Z,96150.00
2023-01-06T14:30:05.044Z,96147.00
2023-01-06T14:34:15.141Z,96138.00
2023-01-06T14:38:26.954Z,96131.00
2023-01-06T14:42:34.722Z,96134.00
2023-01-06T14:46:42.360Z,96145.00
2023-01-06T14:50:50.001Z,96146.00
2023-01-06T14:54:55.780Z,96143.00
2023-01-06T14:59:07.157Z,96139.00
2023-01-06T15:03:23.745Z,96125.00
2023-01-06T15:07:26.991Z,96126.00
2023-01-06T15:11:33.477Z,96133.00
2023-01-06T15:15:38.153Z,96136.00
2023-01-06T15:19:47.329Z,96138.00
2023-01-06T15:23:53.781Z,96138.00
2023-01-06T15:27:57.832Z,96133.00
2023-01-06T15:32:02.827Z,96136.00
2023-01-06T15:36:07.484Z,96146.00
2023-01-06T15:40:16.877Z,96140.00
2023-01-06T15:44:26.756Z,96142.00
2023-01-06T15:48:34.555Z,96141.00
2023-01-06T15:52:45.242Z,96147.00
2023-01-06T15:56:48.161Z,96137.00
2023-01-06T16:00:59.368Z,96144.00
2023-01-06T16:05:02.459Z,96143.00
2023-01-06T16:09:25.674Z,96153.00
2023-01-06T16:13:30.047Z,96147.00
2023-01-06T16:17:34.996Z,96151.00
2023-01-06T16:21:40.238Z,96150.00
2023-01-06T16:25:43.085Z,96155.00
2023-01-06T16:29:45.875Z,96162.00
2023-01-06T16:33:50.166Z,96158.00
2023-01-06T16:37:53.972Z,96165.00
2023-01-06T16:42:38.839Z,96174.00
2023-01-06T16:46:41.727Z,96174.00
2023-01-06T16:50:53.247Z,96182.00
2023-01-06T16:54:58.185Z,96170.00
2023-01-06T16:59:01.659Z,96174.00
2023-01-06T17:03:14.167Z,96181.00
2023-01-06T17:07:20.814Z,96181.00
2023-01-06T17:11:25.869Z,96180.00
2023-01-06T17:15:28.755Z,96189.00
2023-01-06T17:19:36.831Z,96192.00
2023-01-06T17:23:49.865Z,96188.00
2023-01-06T17:27:56.227Z,96195.00
2023-01-06T17:32:04.253Z,96199.00
2023-01-06T17:36:15.644Z,96207.00
2023-01-06T17:40:27.304Z,96201.00
2023-01-06T17:44:36.227Z,96212.00
2023-01-06T17:48:39.085Z,96215.00
2023-01-06T17:52:43.771Z,96214.00
2023-01-06T17:56:48.309Z,96219.00
2023-01-06T18:00:51.194Z,96211.00
2023-01-06T18:04:54.110Z,96227.00
2023-01-06T18:09:12.590Z,96217.00
2023-01-06T18:13:18.513Z,96223.00
2023-01-06T18:17:24.555Z,96219.00
2023-01-06T18:21:36.201Z,96228.00
2023-01-06T18:25:41.711Z,96233.00
2023-01-06T18:29:46.393Z,96237.00
2023-01-06T18:33:51.611Z,96236.00
2023-01-06T18:37:56.211Z,96240.00
2023-01-06T18:42:27.289Z,96239.00
2023-01-06T18:46:33.336Z,96235.00
2023-01-06T18:50:41.712Z,96235.00
2023-01-06T18:54:44.763Z,96235.00
2023-01-06T18:58:49.973Z,96213.00
2023-01-06T19:03:03.960Z,96222.00
2023-01-06T19:07:13.988Z,96219.00
2023-01-06T19:11:18.232Z,96233.00
2023-01-06T19:15:24.119Z,96222.00
2023-01-06T19:19:32.445Z,96230.00
2023-01-06T19:23:35.991Z,96221.00
2023-01-06T19:27:45.917Z,96218.00
2023-01-06T19:31:55.915Z,96230.00
2023-01-06T19:36:07.616Z,96214.00
2023-01-06T19:40:26.218Z,96222.00
2023-01-06T19:44:32.450Z,96212.00
2023-01-06T19:48:39.423Z,96212.00
2023-01-06T19:52:43.800Z,96215.00
2023-01-06T19:56:47.636Z,96208.00
2023-01-06T20:00:52.428Z,96213.00
2023-01-06T20:04:55.394Z,96214.00
2023-01-06T20:08:59.554Z,96213.00
2023-01-06T20:13:02.355Z,96205.00
2023-01-06T20:17:05.136Z,96214.00
2023-01-06T20:21:08.093Z,96200.00
2023-01-06T20:25:12.388Z,96199.00
2023-01-06T20:29:15.310Z,96199.00
2023-01-06T20:33:18.148Z,96202.00
2023-01-06T20:37:21.063Z,96196.00
2023-01-06T20:41:25.330Z,96193.00
2023-01-06T20:45:28.144Z,96186.00
2023-01-06T20:49:31.104Z,96187.00
2023-01-06T20:53:34.029Z,96191.00
2023-01-06T20:57:38.382Z,96178.00
2023-01-06T21:01:41.356Z,96177.00
2023-01-06T21:05:44.352Z,96179.00
2023-01-06T21:09:47.188Z,96176.00
2023-01-06T21:13:51.360Z,96173.00
2023-01-06T21:17:54.440Z,96176.00
2023-01-06T21:21:57.373Z,96168.00
2023-01-06T21:26:00.222Z,96170.00
2023-01-06T21:30:05.177Z,96156.00
2023-01-06T21:34:08.062Z,96159.00
2023-01-06T21:38:10.919Z,96163.00
2023-01-06T21:42:31.103Z,96162.00
2023-01-06T21:46:38.049Z,96170.00
2023-01-06T21:50:44.359Z,96176.00
2023-01-06T21:54:47.108Z,96169.00
2023-01-06T21:58:50.226Z,96165.00
2023-01-06T22:02:54.909Z,96164.00
2023-01-06T22:07:01.193Z,96170.00
2023-01-06T22:11:04.779Z,96162.00
2023-01-06T22:15:09.687Z,96168.00
2023-01-06T22:19:15.717Z,96163.00
2023-01-06T22:23:21.927Z,96167.00
2023-01-06T22:27:25.065Z,96175.00
2023-01-06T22:31:27.891Z,96168.00
2023-01-06T22:35:32.306Z,96166.00
2023-01-06T22:39:35.117Z,96162.00
2023-01-06T22:43:38.104Z,96156.00
2023-01-06T22:47:41.119Z,96157.00
2023-01-06T22:51:45.327Z,96153.00
2023-01-06T22:55:57.158Z,96149.00
2023-01-06T23:00:00.308Z,96150.00
2023-01-06T23:04:03.522Z,96148.00
2023-01-06T23:08:07.891Z,96146.00
2023-01-06T23:12:10.832Z,96139.00
2023-01-06T23:16:15.642Z,96158.00
2023-01-06T23:20:18.749Z,96153.00
2023-01-06T23:24:22.975Z,96145.00
2023-01-06T23:28:25.888Z,96141.00
2023-01-06T23:32:28.736Z,96133.00
2023-01-06T23:36:31.852Z,96133.00
2023-01-06T23:40:36.064Z,96135.00
2023-01-06T23:44:38.863Z,96133.00
2023-01-06T23:48:42.789Z,96119.00
2023-01-06T23:52:45.642Z,96120.00
2023-01-06T23:56:49.819Z,96121.00
